sensor_id;sensor_type;location;lat;lon;timestamp;P1;durP1;ratioP1;P2;durP2;ratioP2
17864;SDS011;9058;52.018;4.202;2023-11-19T00:00:38;40.10;;;7.78;;
17864;SDS011;9058;52.018;4.202;2023-11-19T00:03:05;45.53;;;8.02;;
17864;SDS011;9058;52.018;4.202;2023-11-19T00:05:33;39.92;;;8.05;;
17864;SDS011;9058;52.018;4.202;2023-11-19T00:07:59;40.53;;;8.52;;
17864;SDS011;9058;52.018;4.202;2023-11-19T00:10:27;40.33;;;10.38;;
17864;SDS011;9058;52.018;4.202;2023-11-19T00:12:55;49.60;;;9.10;;
17864;SDS011;9058;52.018;4.202;2023-11-19T00:15:22;41.83;;;8.07;;
17864;SDS011;9058;52.018;4.202;2023-11-19T00:17:50;41.38;;;8.00;;
17864;SDS011;9058;52.018;4.202;2023-11-19T00:20:18;37.67;;;7.78;;
17864;SDS011;9058;52.018;4.202;2023-11-19T00:22:47;41.72;;;7.75;;
17864;SDS011;9058;52.018;4.202;2023-11-19T00:25:16;51.67;;;7.72;;
17864;SDS011;9058;52.018;4.202;2023-11-19T00:27:43;42.63;;;7.95;;
17864;SDS011;9058;52.018;4.202;2023-11-19T00:30:10;37.10;;;7.57;;
17864;SDS011;9058;52.018;4.202;2023-11-19T00:32:37;48.33;;;6.88;;
17864;SDS011;9058;52.018;4.202;2023-11-19T00:35:04;41.55;;;8.02;;
17864;SDS011;9058;52.018;4.202;2023-11-19T00:37:33;40.65;;;6.57;;
17864;SDS011;9058;52.018;4.202;2023-11-19T00:40:00;44.22;;;7.40;;
17864;SDS011;9058;52.018;4.202;2023-11-19T00:42:30;39.80;;;6.63;;
17864;SDS011;9058;52.018;4.202;2023-11-19T00:44:56;42.08;;;7.28;;
17864;SDS011;9058;52.018;4.202;2023-11-19T00:47:23;51.55;;;9.20;;
17864;SDS011;9058;52.018;4.202;2023-11-19T00:49:50;37.22;;;7.68;;
17864;SDS011;9058;52.018;4.202;2023-11-19T00:52:16;45.15;;;8.10;;
17864;SDS011;9058;52.018;4.202;2023-11-19T00:54:46;41.55;;;6.88;;
17864;SDS011;9058;52.018;4.202;2023-11-19T00:57:12;30.65;;;7.00;;
17864;SDS011;9058;52.018;4.202;2023-11-19T00:59:41;36.03;;;7.50;;
17864;SDS011;9058;52.018;4.202;2023-11-19T01:02:07;46.75;;;9.10;;
17864;SDS011;9058;52.018;4.202;2023-11-19T01:04:33;42.90;;;8.40;;
17864;SDS011;9058;52.018;4.202;2023-11-19T01:07:01;46.90;;;8.68;;
17864;SDS011;9058;52.018;4.202;2023-11-19T01:09:28;43.85;;;8.02;;
17864;SDS011;9058;52.018;4.202;2023-11-19T01:11:58;37.72;;;8.30;;
17864;SDS011;9058;52.018;4.202;2023-11-19T01:14:26;50.00;;;9.25;;
17864;SDS011;9058;52.018;4.202;2023-11-19T01:16:52;35.70;;;8.73;;
17864;SDS011;9058;52.018;4.202;2023-11-19T01:19:20;52.33;;;8.93;;
17864;SDS011;9058;52.018;4.202;2023-11-19T01:21:47;40.00;;;8.43;;
17864;SDS011;9058;52.018;4.202;2023-11-19T01:24:15;42.60;;;6.97;;
17864;SDS011;9058;52.018;4.202;2023-11-19T01:26:41;44.95;;;7.88;;
17864;SDS011;9058;52.018;4.202;2023-11-19T01:29:11;36.47;;;7.65;;
17864;SDS011;9058;52.018;4.202;2023-11-19T01:31:40;47.70;;;8.27;;
17864;SDS011;9058;52.018;4.202;2023-11-19T01:34:07;51.60;;;8.10;;
17864;SDS011;9058;52.018;4.202;2023-11-19T01:36:33;44.28;;;8.77;;
17864;SDS011;9058;52.018;4.202;2023-11-19T01:39:00;44.20;;;7.88;;
17864;SDS011;9058;52.018;4.202;2023-11-19T01:41:29;36.50;;;8.02;;
17864;SDS011;9058;52.018;4.202;2023-11-19T01:43:55;46.55;;;7.45;;
17864;SDS011;9058;52.018;4.202;2023-11-19T01:46:23;41.78;;;7.47;;
17864;SDS011;9058;52.018;4.202;2023-11-19T01:48:52;42.88;;;8.18;;
17864;SDS011;9058;52.018;4.202;2023-11-19T01:51:19;35.63;;;7.10;;
17864;SDS011;9058;52.018;4.202;2023-11-19T01:53:45;34.53;;;7.37;;
17864;SDS011;9058;52.018;4.202;2023-11-19T01:56:13;41.25;;;8.90;;
17864;SDS011;9058;52.018;4.202;2023-11-19T01:58:42;38.80;;;8.30;;
17864;SDS011;9058;52.018;4.202;2023-11-19T02:01:10;51.50;;;9.30;;
17864;SDS011;9058;52.018;4.202;2023-11-19T02:03:39;38.17;;;9.18;;
17864;SDS011;9058;52.018;4.202;2023-11-19T02:06:06;42.85;;;7.40;;
17864;SDS011;9058;52.018;4.202;2023-11-19T02:08:35;37.92;;;8.57;;
17864;SDS011;9058;52.018;4.202;2023-11-19T02:11:04;41.40;;;7.35;;
17864;SDS011;9058;52.018;4.202;2023-11-19T02:13:36;43.25;;;9.10;;
17864;SDS011;9058;52.018;4.202;2023-11-19T02:16:03;26.42;;;5.68;;
17864;SDS011;9058;52.018;4.202;2023-11-19T02:18:30;39.65;;;7.60;;
17864;SDS011;9058;52.018;4.202;2023-11-19T02:20:59;40.25;;;7.47;;
17864;SDS011;9058;52.018;4.202;2023-11-19T02:23:26;40.10;;;7.57;;
17864;SDS011;9058;52.018;4.202;2023-11-19T02:25:56;47.45;;;7.88;;
17864;SDS011;9058;52.018;4.202;2023-11-19T02:28:27;42.53;;;8.10;;
17864;SDS011;9058;52.018;4.202;2023-11-19T02:30:54;41.65;;;7.07;;
17864;SDS011;9058;52.018;4.202;2023-11-19T02:33:20;38.88;;;8.65;;
17864;SDS011;9058;52.018;4.202;2023-11-19T02:35:47;46.40;;;7.68;;
17864;SDS011;9058;52.018;4.202;2023-11-19T02:38:13;32.72;;;6.68;;
17864;SDS011;9058;52.018;4.202;2023-11-19T02:40:41;50.33;;;8.52;;
17864;SDS011;9058;52.018;4.202;2023-11-19T02:43:07;39.88;;;6.85;;
17864;SDS011;9058;52.018;4.202;2023-11-19T02:45:36;43.03;;;9.13;;
17864;SDS011;9058;52.018;4.202;2023-11-19T02:48:02;40.58;;;7.93;;
17864;SDS011;9058;52.018;4.202;2023-11-19T02:50:31;35.30;;;7.22;;
17864;SDS011;9058;52.018;4.202;2023-11-19T02:52:58;41.13;;;7.43;;
17864;SDS011;9058;52.018;4.202;2023-11-19T02:55:26;25.77;;;6.47;;
17864;SDS011;9058;52.018;4.202;2023-11-19T02:57:55;45.50;;;8.88;;
17864;SDS011;9058;52.018;4.202;2023-11-19T03:00:24;50.53;;;9.68;;
17864;SDS011;9058;52.018;4.202;2023-11-19T03:03:00;42.15;;;7.78;;
17864;SDS011;9058;52.018;4.202;2023-11-19T03:05:35;39.90;;;7.63;;
17864;SDS011;9058;52.018;4.202;2023-11-19T03:08:01;33.45;;;7.57;;
17864;SDS011;9058;52.018;4.202;2023-11-19T03:10:28;39.13;;;8.57;;
17864;SDS011;9058;52.018;4.202;2023-11-19T03:12:55;39.13;;;7.32;;
17864;SDS011;9058;52.018;4.202;2023-11-19T03:15:22;34.58;;;7.53;;
17864;SDS011;9058;52.018;4.202;2023-11-19T03:17:49;41.65;;;7.85;;
17864;SDS011;9058;52.018;4.202;2023-11-19T03:20:18;35.83;;;7.68;;
17864;SDS011;9058;52.018;4.202;2023-11-19T03:22:45;36.28;;;7.80;;
17864;SDS011;9058;52.018;4.202;2023-11-19T03:25:12;38.50;;;7.20;;
17864;SDS011;9058;52.018;4.202;2023-11-19T03:27:39;48.17;;;9.32;;
17864;SDS011;9058;52.018;4.202;2023-11-19T03:30:07;43.83;;;8.70;;
17864;SDS011;9058;52.018;4.202;2023-11-19T03:32:34;48.67;;;8.32;;
17864;SDS011;9058;52.018;4.202;2023-11-19T03:35:01;40.10;;;7.82;;
17864;SDS011;9058;52.018;4.202;2023-11-19T03:37:33;47.80;;;8.27;;
17864;SDS011;9058;52.018;4.202;2023-11-19T03:39:59;41.63;;;8.68;;
17864;SDS011;9058;52.018;4.202;2023-11-19T03:42:26;42.55;;;7.30;;
17864;SDS011;9058;52.018;4.202;2023-11-19T03:44:53;43.67;;;8.48;;
17864;SDS011;9058;52.018;4.202;2023-11-19T03:47:19;42.08;;;7.07;;
17864;SDS011;9058;52.018;4.202;2023-11-19T03:49:47;50.58;;;8.15;;
17864;SDS011;9058;52.018;4.202;2023-11-19T03:52:14;40.20;;;7.57;;
17864;SDS011;9058;52.018;4.202;2023-11-19T03:54:45;43.03;;;9.73;;
17864;SDS011;9058;52.018;4.202;2023-11-19T03:57:12;48.63;;;8.80;;
17864;SDS011;9058;52.018;4.202;2023-11-19T03:59:38;35.17;;;6.68;;
17864;SDS011;9058;52.018;4.202;2023-11-19T04:02:05;38.58;;;7.32;;
17864;SDS011;9058;52.018;4.202;2023-11-19T04:04:32;37.08;;;7.22;;
17864;SDS011;9058;52.018;4.202;2023-11-19T04:07:00;40.50;;;6.38;;
17864;SDS011;9058;52.018;4.202;2023-11-19T04:09:28;45.60;;;6.88;;
17864;SDS011;9058;52.018;4.202;2023-11-19T04:11:55;48.00;;;8.13;;
17864;SDS011;9058;52.018;4.202;2023-11-19T04:14:22;33.75;;;6.57;;
17864;SDS011;9058;52.018;4.202;2023-11-19T04:16:50;28.25;;;6.30;;
17864;SDS011;9058;52.018;4.202;2023-11-19T04:19:16;28.45;;;5.05;;
17864;SDS011;9058;52.018;4.202;2023-11-19T04:21:43;35.75;;;7.45;;
17864;SDS011;9058;52.018;4.202;2023-11-19T04:24:10;33.55;;;7.55;;
17864;SDS011;9058;52.018;4.202;2023-11-19T04:26:39;35.83;;;7.72;;
17864;SDS011;9058;52.018;4.202;2023-11-19T04:29:08;33.92;;;6.38;;
17864;SDS011;9058;52.018;4.202;2023-11-19T04:31:36;33.17;;;6.68;;
17864;SDS011;9058;52.018;4.202;2023-11-19T04:34:03;38.00;;;6.65;;
17864;SDS011;9058;52.018;4.202;2023-11-19T04:36:29;38.45;;;7.15;;
17864;SDS011;9058;52.018;4.202;2023-11-19T04:38:58;26.17;;;5.68;;
17864;SDS011;9058;52.018;4.202;2023-11-19T04:41:24;30.40;;;5.90;;
17864;SDS011;9058;52.018;4.202;2023-11-19T04:43:52;28.08;;;5.90;;
17864;SDS011;9058;52.018;4.202;2023-11-19T04:46:21;33.47;;;5.50;;
17864;SDS011;9058;52.018;4.202;2023-11-19T04:48:48;32.92;;;7.22;;
17864;SDS011;9058;52.018;4.202;2023-11-19T04:51:15;25.98;;;5.53;;
17864;SDS011;9058;52.018;4.202;2023-11-19T04:53:43;33.63;;;7.03;;
17864;SDS011;9058;52.018;4.202;2023-11-19T04:56:09;26.02;;;5.25;;
17864;SDS011;9058;52.018;4.202;2023-11-19T04:58:38;24.50;;;5.43;;
17864;SDS011;9058;52.018;4.202;2023-11-19T05:01:04;29.33;;;6.15;;
17864;SDS011;9058;52.018;4.202;2023-11-19T05:03:32;31.88;;;6.07;;
17864;SDS011;9058;52.018;4.202;2023-11-19T05:05:59;29.48;;;5.47;;
17864;SDS011;9058;52.018;4.202;2023-11-19T05:08:25;26.90;;;6.43;;
17864;SDS011;9058;52.018;4.202;2023-11-19T05:10:52;27.73;;;5.40;;
17864;SDS011;9058;52.018;4.202;2023-11-19T05:13:18;27.10;;;6.15;;
17864;SDS011;9058;52.018;4.202;2023-11-19T05:15:45;28.17;;;6.30;;
17864;SDS011;9058;52.018;4.202;2023-11-19T05:18:12;35.13;;;6.25;;
17864;SDS011;9058;52.018;4.202;2023-11-19T05:20:41;34.45;;;8.30;;
17864;SDS011;9058;52.018;4.202;2023-11-19T05:23:07;36.08;;;6.72;;
17864;SDS011;9058;52.018;4.202;2023-11-19T05:25:35;33.28;;;5.47;;
17864;SDS011;9058;52.018;4.202;2023-11-19T05:28:02;31.02;;;6.93;;
17864;SDS011;9058;52.018;4.202;2023-11-19T05:30:29;29.20;;;5.75;;
17864;SDS011;9058;52.018;4.202;2023-11-19T05:32:55;28.88;;;5.93;;
17864;SDS011;9058;52.018;4.202;2023-11-19T05:35:22;33.20;;;7.18;;
17864;SDS011;9058;52.018;4.202;2023-11-19T05:37:50;34.53;;;6.25;;
17864;SDS011;9058;52.018;4.202;2023-11-19T05:40:17;32.90;;;6.97;;
17864;SDS011;9058;52.018;4.202;2023-11-19T05:42:45;30.92;;;5.35;;
17864;SDS011;9058;52.018;4.202;2023-11-19T05:45:12;32.95;;;5.97;;
17864;SDS011;9058;52.018;4.202;2023-11-19T05:47:38;24.90;;;5.45;;
17864;SDS011;9058;52.018;4.202;2023-11-19T05:50:06;31.33;;;7.13;;
17864;SDS011;9058;52.018;4.202;2023-11-19T05:52:33;30.13;;;7.65;;
17864;SDS011;9058;52.018;4.202;2023-11-19T05:55:05;35.95;;;7.28;;
17864;SDS011;9058;52.018;4.202;2023-11-19T05:57:34;28.45;;;5.22;;
17864;SDS011;9058;52.018;4.202;2023-11-19T06:00:01;29.05;;;5.65;;
17864;SDS011;9058;52.018;4.202;2023-11-19T06:02:28;32.45;;;5.82;;
17864;SDS011;9058;52.018;4.202;2023-11-19T06:04:55;33.58;;;5.95;;
17864;SDS011;9058;52.018;4.202;2023-11-19T06:07:22;35.38;;;6.70;;
17864;SDS011;9058;52.018;4.202;2023-11-19T06:09:48;27.75;;;5.97;;
17864;SDS011;9058;52.018;4.202;2023-11-19T06:12:16;30.15;;;5.88;;
17864;SDS011;9058;52.018;4.202;2023-11-19T06:14:43;35.72;;;7.78;;
17864;SDS011;9058;52.018;4.202;2023-11-19T06:17:09;42.10;;;7.05;;
17864;SDS011;9058;52.018;4.202;2023-11-19T06:19:36;33.78;;;6.30;;
17864;SDS011;9058;52.018;4.202;2023-11-19T06:22:03;31.45;;;7.18;;
17864;SDS011;9058;52.018;4.202;2023-11-19T06:24:30;35.22;;;5.93;;
17864;SDS011;9058;52.018;4.202;2023-11-19T06:26:56;28.60;;;5.63;;
17864;SDS011;9058;52.018;4.202;2023-11-19T06:29:25;37.45;;;6.63;;
17864;SDS011;9058;52.018;4.202;2023-11-19T06:31:52;32.90;;;6.07;;
17864;SDS011;9058;52.018;4.202;2023-11-19T06:34:18;31.02;;;6.03;;
17864;SDS011;9058;52.018;4.202;2023-11-19T06:36:45;31.20;;;5.55;;
17864;SDS011;9058;52.018;4.202;2023-11-19T06:39:12;30.40;;;5.78;;
17864;SDS011;9058;52.018;4.202;2023-11-19T06:41:38;30.75;;;6.35;;
17864;SDS011;9058;52.018;4.202;2023-11-19T06:44:05;38.00;;;7.38;;
17864;SDS011;9058;52.018;4.202;2023-11-19T06:46:34;26.10;;;5.30;;
17864;SDS011;9058;52.018;4.202;2023-11-19T06:49:00;27.98;;;5.25;;
17864;SDS011;9058;52.018;4.202;2023-11-19T06:51:27;26.17;;;6.45;;
17864;SDS011;9058;52.018;4.202;2023-11-19T06:53:54;33.50;;;6.22;;
17864;SDS011;9058;52.018;4.202;2023-11-19T06:56:21;25.90;;;5.63;;
17864;SDS011;9058;52.018;4.202;2023-11-19T06:58:48;33.88;;;6.00;;
17864;SDS011;9058;52.018;4.202;2023-11-19T07:01:15;31.35;;;7.45;;
17864;SDS011;9058;52.018;4.202;2023-11-19T07:03:43;25.17;;;5.97;;
17864;SDS011;9058;52.018;4.202;2023-11-19T07:06:10;29.67;;;5.30;;
17864;SDS011;9058;52.018;4.202;2023-11-19T07:08:38;29.55;;;5.85;;
17864;SDS011;9058;52.018;4.202;2023-11-19T07:11:04;37.70;;;6.93;;
17864;SDS011;9058;52.018;4.202;2023-11-19T07:13:31;30.88;;;7.32;;
17864;SDS011;9058;52.018;4.202;2023-11-19T07:15:58;30.20;;;6.15;;
17864;SDS011;9058;52.018;4.202;2023-11-19T07:18:25;26.20;;;6.93;;
17864;SDS011;9058;52.018;4.202;2023-11-19T07:20:53;30.35;;;5.85;;
17864;SDS011;9058;52.018;4.202;2023-11-19T07:23:19;38.00;;;7.25;;
17864;SDS011;9058;52.018;4.202;2023-11-19T07:25:46;27.48;;;6.03;;
17864;SDS011;9058;52.018;4.202;2023-11-19T07:28:15;32.38;;;5.55;;
17864;SDS011;9058;52.018;4.202;2023-11-19T07:30:41;32.53;;;6.28;;
17864;SDS011;9058;52.018;4.202;2023-11-19T07:33:08;30.45;;;6.78;;
17864;SDS011;9058;52.018;4.202;2023-11-19T07:35:35;26.23;;;5.57;;
17864;SDS011;9058;52.018;4.202;2023-11-19T07:38:02;26.30;;;4.65;;
17864;SDS011;9058;52.018;4.202;2023-11-19T07:40:29;35.08;;;6.47;;
17864;SDS011;9058;52.018;4.202;2023-11-19T07:42:55;25.35;;;6.40;;
17864;SDS011;9058;52.018;4.202;2023-11-19T07:45:22;30.83;;;6.35;;
17864;SDS011;9058;52.018;4.202;2023-11-19T07:47:48;31.20;;;5.55;;
17864;SDS011;9058;52.018;4.202;2023-11-19T07:50:16;23.27;;;4.53;;
17864;SDS011;9058;52.018;4.202;2023-11-19T07:52:45;24.13;;;5.00;;
17864;SDS011;9058;52.018;4.202;2023-11-19T07:55:13;35.60;;;6.47;;
17864;SDS011;9058;52.018;4.202;2023-11-19T07:57:39;31.08;;;6.10;;
17864;SDS011;9058;52.018;4.202;2023-11-19T08:00:06;28.73;;;5.72;;
17864;SDS011;9058;52.018;4.202;2023-11-19T08:02:37;30.60;;;5.07;;
17864;SDS011;9058;52.018;4.202;2023-11-19T08:05:03;30.20;;;6.85;;
17864;SDS011;9058;52.018;4.202;2023-11-19T08:07:31;29.20;;;6.00;;
17864;SDS011;9058;52.018;4.202;2023-11-19T08:09:57;38.42;;;7.75;;
17864;SDS011;9058;52.018;4.202;2023-11-19T08:12:26;37.47;;;6.43;;
17864;SDS011;9058;52.018;4.202;2023-11-19T08:14:53;30.58;;;5.72;;
17864;SDS011;9058;52.018;4.202;2023-11-19T08:17:19;35.33;;;6.88;;
17864;SDS011;9058;52.018;4.202;2023-11-19T08:19:48;31.17;;;6.25;;
17864;SDS011;9058;52.018;4.202;2023-11-19T08:22:14;31.45;;;6.65;;
17864;SDS011;9058;52.018;4.202;2023-11-19T08:27:45;28.75;;;5.88;;
17864;SDS011;9058;52.018;4.202;2023-11-19T08:30:12;34.40;;;5.45;;
17864;SDS011;9058;52.018;4.202;2023-11-19T08:32:40;29.92;;;5.97;;
17864;SDS011;9058;52.018;4.202;2023-11-19T08:35:07;29.30;;;5.20;;
17864;SDS011;9058;52.018;4.202;2023-11-19T08:37:33;30.60;;;8.00;;
17864;SDS011;9058;52.018;4.202;2023-11-19T08:40:01;32.03;;;6.53;;
17864;SDS011;9058;52.018;4.202;2023-11-19T08:42:29;34.78;;;6.25;;
17864;SDS011;9058;52.018;4.202;2023-11-19T08:44:59;33.83;;;6.53;;
17864;SDS011;9058;52.018;4.202;2023-11-19T08:47:25;28.27;;;5.38;;
17864;SDS011;9058;52.018;4.202;2023-11-19T08:49:52;35.38;;;7.30;;
17864;SDS011;9058;52.018;4.202;2023-11-19T08:52:20;31.63;;;6.65;;
17864;SDS011;9058;52.018;4.202;2023-11-19T08:54:46;33.50;;;6.00;;
17864;SDS011;9058;52.018;4.202;2023-11-19T08:57:13;30.60;;;5.43;;
17864;SDS011;9058;52.018;4.202;2023-11-19T08:59:39;20.95;;;5.10;;
17864;SDS011;9058;52.018;4.202;2023-11-19T09:02:07;30.15;;;7.10;;
17864;SDS011;9058;52.018;4.202;2023-11-19T09:04:34;32.65;;;5.95;;
17864;SDS011;9058;52.018;4.202;2023-11-19T09:07:01;30.10;;;6.03;;
17864;SDS011;9058;52.018;4.202;2023-11-19T09:09:27;27.50;;;5.55;;
17864;SDS011;9058;52.018;4.202;2023-11-19T09:11:54;30.92;;;5.45;;
17864;SDS011;9058;52.018;4.202;2023-11-19T09:14:20;30.08;;;7.63;;
17864;SDS011;9058;52.018;4.202;2023-11-19T09:16:50;26.55;;;6.43;;
17864;SDS011;9058;52.018;4.202;2023-11-19T09:19:18;22.35;;;5.85;;
17864;SDS011;9058;52.018;4.202;2023-11-19T09:21:45;31.95;;;5.60;;
17864;SDS011;9058;52.018;4.202;2023-11-19T09:24:14;27.67;;;6.53;;
17864;SDS011;9058;52.018;4.202;2023-11-19T09:26:40;42.33;;;6.32;;
17864;SDS011;9058;52.018;4.202;2023-11-19T09:29:07;28.88;;;5.60;;
17864;SDS011;9058;52.018;4.202;2023-11-19T09:31:34;22.55;;;4.97;;
17864;SDS011;9058;52.018;4.202;2023-11-19T09:34:00;26.83;;;5.47;;
17864;SDS011;9058;52.018;4.202;2023-11-19T09:36:28;23.10;;;4.85;;
17864;SDS011;9058;52.018;4.202;2023-11-19T09:38:57;25.83;;;6.57;;
17864;SDS011;9058;52.018;4.202;2023-11-19T09:41:25;23.60;;;5.03;;
17864;SDS011;9058;52.018;4.202;2023-11-19T09:43:53;27.83;;;6.13;;
17864;SDS011;9058;52.018;4.202;2023-11-19T09:46:19;26.73;;;4.95;;
17864;SDS011;9058;52.018;4.202;2023-11-19T09:48:49;23.52;;;5.13;;
17864;SDS011;9058;52.018;4.202;2023-11-19T09:51:20;27.15;;;5.50;;
17864;SDS011;9058;52.018;4.202;2023-11-19T09:53:47;18.00;;;4.90;;
17864;SDS011;9058;52.018;4.202;2023-11-19T09:56:14;35.08;;;5.43;;
17864;SDS011;9058;52.018;4.202;2023-11-19T09:58:42;25.23;;;5.45;;
17864;SDS011;9058;52.018;4.202;2023-11-19T10:01:08;19.67;;;4.60;;
17864;SDS011;9058;52.018;4.202;2023-11-19T10:03:37;21.58;;;4.78;;
17864;SDS011;9058;52.018;4.202;2023-11-19T10:06:06;21.42;;;5.15;;
17864;SDS011;9058;52.018;4.202;2023-11-19T10:08:33;26.27;;;6.30;;
17864;SDS011;9058;52.018;4.202;2023-11-19T10:11:01;27.65;;;5.35;;
17864;SDS011;9058;52.018;4.202;2023-11-19T10:13:27;21.10;;;4.65;;
17864;SDS011;9058;52.018;4.202;2023-11-19T10:15:54;22.20;;;5.00;;
17864;SDS011;9058;52.018;4.202;2023-11-19T10:18:23;27.48;;;6.07;;
17864;SDS011;9058;52.018;4.202;2023-11-19T10:20:50;24.15;;;5.20;;
17864;SDS011;9058;52.018;4.202;2023-11-19T10:23:17;24.92;;;4.70;;
17864;SDS011;9058;52.018;4.202;2023-11-19T10:25:44;30.83;;;6.10;;
17864;SDS011;9058;52.018;4.202;2023-11-19T10:28:12;35.00;;;5.68;;
17864;SDS011;9058;52.018;4.202;2023-11-19T10:30:41;28.50;;;5.88;;
17864;SDS011;9058;52.018;4.202;2023-11-19T10:33:07;27.45;;;4.90;;
17864;SDS011;9058;52.018;4.202;2023-11-19T10:35:35;27.02;;;5.82;;
17864;SDS011;9058;52.018;4.202;2023-11-19T10:38:02;20.63;;;5.28;;
17864;SDS011;9058;52.018;4.202;2023-11-19T10:40:39;26.27;;;5.38;;
17864;SDS011;9058;52.018;4.202;2023-11-19T10:43:06;18.45;;;3.83;;
17864;SDS011;9058;52.018;4.202;2023-11-19T10:45:34;29.65;;;5.15;;
17864;SDS011;9058;52.018;4.202;2023-11-19T10:48:01;25.77;;;4.40;;
17864;SDS011;9058;52.018;4.202;2023-11-19T10:50:29;18.58;;;4.45;;
17864;SDS011;9058;52.018;4.202;2023-11-19T10:52:57;18.80;;;4.38;;
17864;SDS011;9058;52.018;4.202;2023-11-19T10:55:26;22.05;;;5.00;;
17864;SDS011;9058;52.018;4.202;2023-11-19T10:57:53;22.73;;;5.38;;
17864;SDS011;9058;52.018;4.202;2023-11-19T11:00:22;23.70;;;4.65;;
17864;SDS011;9058;52.018;4.202;2023-11-19T11:02:52;28.88;;;7.38;;
17864;SDS011;9058;52.018;4.202;2023-11-19T11:05:20;28.00;;;6.35;;
17864;SDS011;9058;52.018;4.202;2023-11-19T11:07:47;29.42;;;5.88;;
17864;SDS011;9058;52.018;4.202;2023-11-19T11:10:15;24.65;;;5.85;;
17864;SDS011;9058;52.018;4.202;2023-11-19T11:12:42;26.30;;;5.70;;
17864;SDS011;9058;52.018;4.202;2023-11-19T11:15:10;32.47;;;5.85;;
17864;SDS011;9058;52.018;4.202;2023-11-19T11:17:37;31.40;;;6.70;;
17864;SDS011;9058;52.018;4.202;2023-11-19T11:20:06;31.65;;;7.50;;
17864;SDS011;9058;52.018;4.202;2023-11-19T11:22:39;35.40;;;7.18;;
17864;SDS011;9058;52.018;4.202;2023-11-19T11:25:13;27.67;;;6.40;;
17864;SDS011;9058;52.018;4.202;2023-11-19T11:27:44;33.60;;;6.45;;
17864;SDS011;9058;52.018;4.202;2023-11-19T11:30:15;27.25;;;5.07;;
17864;SDS011;9058;52.018;4.202;2023-11-19T11:32:45;30.92;;;6.28;;
17864;SDS011;9058;52.018;4.202;2023-11-19T11:35:24;27.42;;;6.57;;
17864;SDS011;9058;52.018;4.202;2023-11-19T11:37:53;31.13;;;6.38;;
17864;SDS011;9058;52.018;4.202;2023-11-19T11:40:22;29.27;;;6.32;;
17864;SDS011;9058;52.018;4.202;2023-11-19T11:42:48;23.95;;;5.35;;
17864;SDS011;9058;52.018;4.202;2023-11-19T11:45:16;25.23;;;5.75;;
17864;SDS011;9058;52.018;4.202;2023-11-19T11:50:32;22.15;;;4.90;;
17864;SDS011;9058;52.018;4.202;2023-11-19T11:53:13;20.60;;;4.75;;
17864;SDS011;9058;52.018;4.202;2023-11-19T11:55:51;18.48;;;4.43;;
17864;SDS011;9058;52.018;4.202;2023-11-19T11:58:20;17.40;;;4.90;;
17864;SDS011;9058;52.018;4.202;2023-11-19T12:00:47;22.17;;;4.57;;
17864;SDS011;9058;52.018;4.202;2023-11-19T12:03:14;28.05;;;5.40;;
17864;SDS011;9058;52.018;4.202;2023-11-19T12:05:43;23.38;;;5.15;;
17864;SDS011;9058;52.018;4.202;2023-11-19T12:08:10;28.08;;;5.80;;
17864;SDS011;9058;52.018;4.202;2023-11-19T12:10:43;26.58;;;5.50;;
17864;SDS011;9058;52.018;4.202;2023-11-19T12:13:10;24.77;;;5.35;;
17864;SDS011;9058;52.018;4.202;2023-11-19T12:18:19;20.98;;;4.88;;
17864;SDS011;9058;52.018;4.202;2023-11-19T12:20:47;22.90;;;4.88;;
17864;SDS011;9058;52.018;4.202;2023-11-19T12:23:14;25.58;;;5.70;;
17864;SDS011;9058;52.018;4.202;2023-11-19T12:25:40;34.95;;;5.82;;
17864;SDS011;9058;52.018;4.202;2023-11-19T12:28:11;34.05;;;5.43;;
17864;SDS011;9058;52.018;4.202;2023-11-19T12:30:38;19.40;;;4.45;;
17864;SDS011;9058;52.018;4.202;2023-11-19T12:33:07;28.55;;;6.63;;
17864;SDS011;9058;52.018;4.202;2023-11-19T12:35:34;28.85;;;5.68;;
17864;SDS011;9058;52.018;4.202;2023-11-19T12:38:08;30.95;;;6.65;;
17864;SDS011;9058;52.018;4.202;2023-11-19T12:40:34;28.27;;;6.05;;
17864;SDS011;9058;52.018;4.202;2023-11-19T12:43:01;32.53;;;6.10;;
17864;SDS011;9058;52.018;4.202;2023-11-19T12:45:34;30.98;;;7.10;;
17864;SDS011;9058;52.018;4.202;2023-11-19T12:48:04;32.97;;;7.05;;
17864;SDS011;9058;52.018;4.202;2023-11-19T12:50:45;27.83;;;5.55;;
17864;SDS011;9058;52.018;4.202;2023-11-19T12:53:17;29.33;;;5.28;;
17864;SDS011;9058;52.018;4.202;2023-11-19T12:55:43;25.98;;;5.60;;
17864;SDS011;9058;52.018;4.202;2023-11-19T12:58:10;27.60;;;5.55;;
17864;SDS011;9058;52.018;4.202;2023-11-19T13:00:36;19.85;;;5.15;;
17864;SDS011;9058;52.018;4.202;2023-11-19T13:03:02;31.15;;;6.25;;
17864;SDS011;9058;52.018;4.202;2023-11-19T13:05:30;23.45;;;5.68;;
17864;SDS011;9058;52.018;4.202;2023-11-19T13:07:58;28.60;;;4.72;;
17864;SDS011;9058;52.018;4.202;2023-11-19T13:10:26;28.23;;;5.20;;
17864;SDS011;9058;52.018;4.202;2023-11-19T13:12:59;28.23;;;5.50;;
17864;SDS011;9058;52.018;4.202;2023-11-19T13:15:26;28.80;;;6.35;;
17864;SDS011;9058;52.018;4.202;2023-11-19T13:17:53;36.08;;;8.60;;
17864;SDS011;9058;52.018;4.202;2023-11-19T13:20:20;30.58;;;6.07;;
17864;SDS011;9058;52.018;4.202;2023-11-19T13:22:54;32.00;;;6.43;;
17864;SDS011;9058;52.018;4.202;2023-11-19T13:25:21;37.63;;;6.97;;
17864;SDS011;9058;52.018;4.202;2023-11-19T13:27:48;26.77;;;5.88;;
17864;SDS011;9058;52.018;4.202;2023-11-19T13:30:15;29.10;;;5.78;;
17864;SDS011;9058;52.018;4.202;2023-11-19T13:32:42;25.02;;;5.85;;
17864;SDS011;9058;52.018;4.202;2023-11-19T13:35:08;42.75;;;7.28;;
17864;SDS011;9058;52.018;4.202;2023-11-19T13:37:35;33.50;;;6.78;;
17864;SDS011;9058;52.018;4.202;2023-11-19T13:40:01;30.13;;;7.40;;
17864;SDS011;9058;52.018;4.202;2023-11-19T13:42:28;38.13;;;7.20;;
17864;SDS011;9058;52.018;4.202;2023-11-19T13:44:56;34.33;;;5.88;;
17864;SDS011;9058;52.018;4.202;2023-11-19T13:47:22;30.20;;;6.35;;
17864;SDS011;9058;52.018;4.202;2023-11-19T13:49:49;29.05;;;5.40;;
17864;SDS011;9058;52.018;4.202;2023-11-19T13:52:15;27.50;;;5.60;;
17864;SDS011;9058;52.018;4.202;2023-11-19T13:54:42;28.83;;;5.65;;
17864;SDS011;9058;52.018;4.202;2023-11-19T13:57:08;35.55;;;7.50;;
17864;SDS011;9058;52.018;4.202;2023-11-19T13:59:39;32.25;;;6.60;;
17864;SDS011;9058;52.018;4.202;2023-11-19T14:02:06;23.75;;;4.53;;
17864;SDS011;9058;52.018;4.202;2023-11-19T14:04:33;29.95;;;5.88;;
17864;SDS011;9058;52.018;4.202;2023-11-19T14:07:00;30.58;;;5.45;;
17864;SDS011;9058;52.018;4.202;2023-11-19T14:09:26;29.95;;;6.32;;
17864;SDS011;9058;52.018;4.202;2023-11-19T14:11:54;26.48;;;5.78;;
17864;SDS011;9058;52.018;4.202;2023-11-19T14:14:20;25.95;;;5.80;;
17864;SDS011;9058;52.018;4.202;2023-11-19T14:16:47;30.10;;;6.10;;
17864;SDS011;9058;52.018;4.202;2023-11-19T14:19:14;31.27;;;5.82;;
17864;SDS011;9058;52.018;4.202;2023-11-19T14:21:41;36.85;;;7.20;;
17864;SDS011;9058;52.018;4.202;2023-11-19T14:24:07;32.60;;;6.03;;
17864;SDS011;9058;52.018;4.202;2023-11-19T14:26:34;25.50;;;5.75;;
17864;SDS011;9058;52.018;4.202;2023-11-19T14:29:00;35.33;;;4.93;;
17864;SDS011;9058;52.018;4.202;2023-11-19T14:31:27;27.75;;;5.00;;
17864;SDS011;9058;52.018;4.202;2023-11-19T14:33:53;32.92;;;6.72;;
17864;SDS011;9058;52.018;4.202;2023-11-19T14:36:21;29.77;;;4.85;;
17864;SDS011;9058;52.018;4.202;2023-11-19T14:38:48;25.83;;;6.00;;
17864;SDS011;9058;52.018;4.202;2023-11-19T14:41:14;27.45;;;5.63;;
17864;SDS011;9058;52.018;4.202;2023-11-19T14:43:41;30.70;;;5.38;;
17864;SDS011;9058;52.018;4.202;2023-11-19T14:46:07;27.90;;;5.78;;
17864;SDS011;9058;52.018;4.202;2023-11-19T14:48:35;30.35;;;5.22;;
17864;SDS011;9058;52.018;4.202;2023-11-19T14:51:01;29.15;;;6.25;;
17864;SDS011;9058;52.018;4.202;2023-11-19T14:53:30;31.38;;;5.93;;
17864;SDS011;9058;52.018;4.202;2023-11-19T14:55:58;37.03;;;6.20;;
17864;SDS011;9058;52.018;4.202;2023-11-19T14:58:24;39.25;;;7.28;;